Time;durP1;ratioP1;P1;durP2;ratioP2;P2;SDS_P1;SDS_P2;PMS_P1;PMS_P2;Temp;Humidity;BMP_temperature;BMP_pressure;BME280_temperature;BME280_humidity;BME280_pressure;Samples;Min_cycle;Max_cycle;Signal;HPM_P1;HPM_P2
2022/09/12 00:01:18;;;;;;;1.40;1.40;;;;;;;;;;5027581;28;20219;-71
2022/09/12 00:03:44;;;;;;;1.40;1.40;;;;;;;;;;5017510;28;20685;-71
2022/09/12 00:06:21;;;;;;;1.40;1.40;;;;;;;;;;5037806;28;20246;-73
2022/09/12 00:08:47;;;;;;;1.80;1.70;;;;;;;;;;5021931;28;20235;-73
2022/09/12 00:11:13;;;;;;;1.60;1.60;;;;;;;;;;5034388;28;20261;-73
2022/09/12 00:13:39;;;;;;;1.90;1.80;;;;;;;;;;5030785;28;20215;-73
2022/09/12 00:16:05;;;;;;;1.50;1.50;;;;;;;;;;5005862;28;20321;-70
2022/09/12 00:18:31;;;;;;;1.93;1.83;;;;;;;;;;4979555;28;20314;-71
2022/09/12 00:20:57;;;;;;;1.40;1.40;;;;;;;;;;4993702;28;20340;-73
2022/09/12 00:23:23;;;;;;;1.60;1.60;;;;;;;;;;4996605;28;20269;-72
2022/09/12 00:25:49;;;;;;;1.60;1.60;;;;;;;;;;4983209;28;20226;-72
2022/09/12 00:28:15;;;;;;;2.10;2.00;;;;;;;;;;4983702;28;20216;-73
2022/09/12 00:30:45;;;;;;;1.60;1.60;;;;;;;;;;5016960;28;20252;-72
2022/09/12 00:33:11;;;;;;;1.50;1.50;;;;;;;;;;5008452;28;20227;-70
2022/09/12 00:35:52;;;;;;;1.37;1.37;;;;;;;;;;5023019;28;20224;-71
2022/09/12 00:38:18;;;;;;;1.53;1.53;;;;;;;;;;5014843;28;20280;-72
2022/09/12 00:40:44;;;;;;;1.40;1.40;;;;;;;;;;5003680;28;20573;-72
2022/09/12 00:43:12;;;;;;;1.40;1.40;;;;;;;;;;5023087;28;20233;-72
2022/09/12 00:45:38;;;;;;;1.40;1.40;;;;;;;;;;4986987;28;20786;-71
2022/09/12 00:48:04;;;;;;;1.60;1.60;;;;;;;;;;5029648;28;20247;-73
2022/09/12 00:50:31;;;;;;;1.53;1.53;;;;;;;;;;5023796;28;20743;-72
2022/09/12 00:52:57;;;;;;;1.50;1.50;;;;;;;;;;5022100;28;20216;-71
2022/09/12 00:55:31;;;;;;;1.73;1.70;;;;;;;;;;5022981;28;20215;-72
2022/09/12 00:58:05;;;;;;;1.40;1.40;;;;;;;;;;5034924;28;20224;-71
2022/09/12 01:00:31;;;;;;;1.90;1.80;;;;;;;;;;5007021;28;20708;-69
2022/09/12 01:03:00;;;;;;;1.87;1.77;;;;;;;;;;4996431;28;20251;-72
2022/09/12 01:05:27;;;;;;;1.60;1.60;;;;;;;;;;5007422;28;20776;-71
2022/09/12 01:07:53;;;;;;;1.90;1.80;;;;;;;;;;5014254;28;20276;-70
2022/09/12 01:10:19;;;;;;;1.30;1.30;;;;;;;;;;5020606;28;20251;-70
2022/09/12 01:12:45;;;;;;;1.60;1.60;;;;;;;;;;5041760;28;20313;-72
2022/09/12 01:15:11;;;;;;;1.50;1.50;;;;;;;;;;5009996;28;20228;-70
2022/09/12 01:17:48;;;;;;;1.40;1.40;;;;;;;;;;5025569;28;20224;-71
2022/09/12 01:20:20;;;;;;;1.67;1.67;;;;;;;;;;5029617;28;20282;-70
2022/09/12 01:22:53;;;;;;;1.57;1.57;;;;;;;;;;5035239;28;20719;-71
2022/09/12 01:25:29;;;;;;;1.40;1.40;;;;;;;;;;5029798;28;20305;-70
2022/09/12 01:27:55;;;;;;;1.50;1.50;;;;;;;;;;5003470;28;20353;-69
2022/09/12 01:30:26;;;;;;;1.67;1.67;;;;;;;;;;5023307;28;20486;-73
2022/09/12 01:32:54;;;;;;;1.50;1.50;;;;;;;;;;5023346;28;20232;-72
2022/09/12 01:35:21;;;;;;;1.50;1.50;;;;;;;;;;5031125;28;20231;-70
2022/09/12 01:38:04;;;;;;;1.60;1.60;;;;;;;;;;5011495;28;20224;-73
2022/09/12 01:40:34;;;;;;;1.57;1.57;;;;;;;;;;5027563;28;20231;-70
2022/09/12 01:43:05;;;;;;;1.50;1.50;;;;;;;;;;4993473;28;20314;-72
2022/09/12 01:45:38;;;;;;;1.60;1.60;;;;;;;;;;5028498;28;20235;-71
2022/09/12 01:48:09;;;;;;;1.60;1.60;;;;;;;;;;5008939;28;20322;-71
2022/09/12 01:50:37;;;;;;;1.50;1.50;;;;;;;;;;5017444;28;20235;-70
2022/09/12 01:53:08;;;;;;;1.30;1.30;;;;;;;;;;5023125;28;20223;-71
2022/09/12 01:55:35;;;;;;;1.50;1.50;;;;;;;;;;5010019;28;20223;-72
2022/09/12 01:58:05;;;;;;;1.50;1.50;;;;;;;;;;5017358;28;20226;-72
2022/09/12 02:00:32;;;;;;;1.30;1.30;;;;;;;;;;5022067;28;20235;-71
2022/09/12 02:03:01;;;;;;;1.40;1.40;;;;;;;;;;5025788;28;20605;-71
2022/09/12 02:05:28;;;;;;;1.63;1.63;;;;;;;;;;5007719;28;21004;-71
2022/09/12 02:08:02;;;;;;;1.50;1.50;;;;;;;;;;5012956;28;20223;-71
2022/09/12 02:10:31;;;;;;;1.73;1.70;;;;;;;;;;5008420;28;20225;-71
2022/09/12 02:13:06;;;;;;;1.50;1.50;;;;;;;;;;5017705;28;20311;-71
2022/09/12 02:15:34;;;;;;;1.60;1.60;;;;;;;;;;5017499;28;20535;-70
2022/09/12 02:18:00;;;;;;;1.60;1.60;;;;;;;;;;5022872;28;20216;-72
2022/09/12 02:20:27;;;;;;;1.50;1.50;;;;;;;;;;5029318;28;22146;-71
2022/09/12 02:22:53;;;;;;;1.63;1.63;;;;;;;;;;5023136;28;20263;-71
2022/09/12 02:25:19;;;;;;;1.50;1.50;;;;;;;;;;5017073;28;20338;-70
2022/09/12 02:27:45;;;;;;;1.50;1.50;;;;;;;;;;5020925;28;20220;-71
2022/09/12 02:30:15;;;;;;;1.30;1.30;;;;;;;;;;5017366;28;20231;-72
2022/09/12 02:32:43;;;;;;;1.43;1.43;;;;;;;;;;5023298;28;20214;-73
2022/09/12 02:35:27;;;;;;;1.40;1.40;;;;;;;;;;5016514;28;20330;-70
2022/09/12 02:38:02;;;;;;;1.53;1.53;;;;;;;;;;5030822;28;20232;-71
2022/09/12 02:40:29;;;;;;;1.40;1.40;;;;;;;;;;5022034;28;20823;-69
2022/09/12 02:42:55;;;;;;;1.50;1.50;;;;;;;;;;5022507;28;20227;-70
2022/09/12 02:45:22;;;;;;;1.33;1.33;;;;;;;;;;5012107;28;20219;-74
2022/09/12 02:47:54;;;;;;;1.10;1.10;;;;;;;;;;5014114;28;20223;-72
2022/09/12 02:50:20;;;;;;;1.43;1.43;;;;;;;;;;5024214;28;20219;-71
2022/09/12 02:52:46;;;;;;;1.00;1.00;;;;;;;;;;5032233;28;20769;-71
2022/09/12 02:55:12;;;;;;;1.00;1.00;;;;;;;;;;5034180;28;20212;-70
2022/09/12 02:57:38;;;;;;;1.10;1.10;;;;;;;;;;5014342;28;20439;-72
2022/09/12 03:00:04;;;;;;;1.30;1.30;;;;;;;;;;5005961;28;20213;-70
2022/09/12 03:02:48;;;;;;;1.30;1.30;;;;;;;;;;5027563;28;20238;-71
2022/09/12 03:05:17;;;;;;;1.30;1.30;;;;;;;;;;5026257;28;20235;-71
2022/09/12 03:07:47;;;;;;;1.20;1.20;;;;;;;;;;5033558;28;20234;-71
2022/09/12 03:10:28;;;;;;;1.40;1.40;;;;;;;;;;5012240;28;20223;-71
2022/09/12 03:13:06;;;;;;;1.60;1.60;;;;;;;;;;5019263;28;20360;-71
2022/09/12 03:15:39;;;;;;;1.40;1.40;;;;;;;;;;5027419;28;20239;-70
2022/09/12 03:18:07;;;;;;;1.60;1.60;;;;;;;;;;5032189;28;20414;-71
2022/09/12 03:20:52;;;;;;;1.53;1.53;;;;;;;;;;5026026;28;20285;-71
2022/09/12 03:23:24;;;;;;;1.40;1.40;;;;;;;;;;5022038;28;20254;-72
2022/09/12 03:25:55;;;;;;;1.30;1.30;;;;;;;;;;5034141;28;20722;-70
2022/09/12 03:28:21;;;;;;;1.60;1.60;;;;;;;;;;5018079;28;20223;-71
2022/09/12 03:30:47;;;;;;;1.40;1.40;;;;;;;;;;5023709;28;20220;-71
2022/09/12 03:33:14;;;;;;;1.40;1.40;;;;;;;;;;5014278;28;20220;-71
2022/09/12 03:35:40;;;;;;;1.87;1.77;;;;;;;;;;5009779;28;20535;-70
2022/09/12 03:38:06;;;;;;;1.80;1.70;;;;;;;;;;5012949;28;20694;-72
2022/09/12 03:40:33;;;;;;;1.40;1.40;;;;;;;;;;5036823;28;20256;-69
2022/09/12 03:42:59;;;;;;;1.30;1.30;;;;;;;;;;5029917;28;20231;-72
2022/09/12 03:45:25;;;;;;;1.60;1.60;;;;;;;;;;5011484;28;21589;-71
2022/09/12 03:47:50;;;;;;;1.30;1.30;;;;;;;;;;5012372;28;20219;-71
2022/09/12 03:50:16;;;;;;;1.40;1.40;;;;;;;;;;5027251;28;20231;-70
2022/09/12 03:52:42;;;;;;;1.40;1.40;;;;;;;;;;5031185;28;20222;-70
2022/09/12 03:55:08;;;;;;;1.30;1.30;;;;;;;;;;5026990;28;20392;-71
2022/09/12 03:57:34;;;;;;;1.30;1.30;;;;;;;;;;5010166;28;20685;-71
2022/09/12 04:00:00;;;;;;;1.40;1.40;;;;;;;;;;5010911;28;20719;-70
2022/09/12 04:02:27;;;;;;;1.20;1.20;;;;;;;;;;5013837;28;20293;-73
2022/09/12 04:04:52;;;;;;;1.20;1.20;;;;;;;;;;5022938;28;20330;-69
2022/09/12 04:07:18;;;;;;;1.30;1.30;;;;;;;;;;5015038;28;20254;-70
2022/09/12 04:09:45;;;;;;;1.10;1.10;;;;;;;;;;5011707;28;20232;-70
2022/09/12 04:12:12;;;;;;;1.50;1.50;;;;;;;;;;5013293;28;20731;-72
2022/09/12 04:14:38;;;;;;;1.60;1.60;;;;;;;;;;4998337;28;20875;-71
2022/09/12 04:17:04;;;;;;;1.50;1.50;;;;;;;;;;5023061;28;20226;-70
2022/09/12 04:19:30;;;;;;;1.60;1.60;;;;;;;;;;5020327;28;20234;-71
2022/09/12 04:21:56;;;;;;;1.50;1.50;;;;;;;;;;5022064;28;20255;-72
2022/09/12 04:24:22;;;;;;;1.60;1.60;;;;;;;;;;5019287;28;20299;-69
2022/09/12 04:26:48;;;;;;;1.53;1.53;;;;;;;;;;5009636;28;20224;-72
2022/09/12 04:29:14;;;;;;;1.30;1.30;;;;;;;;;;5005745;28;20223;-73
2022/09/12 04:31:40;;;;;;;1.63;1.63;;;;;;;;;;4999595;28;20822;-75
2022/09/12 04:34:06;;;;;;;1.83;1.73;;;;;;;;;;5021022;28;21265;-72
2022/09/12 04:36:33;;;;;;;1.40;1.40;;;;;;;;;;5028339;28;20290;-73
2022/09/12 04:38:59;;;;;;;1.47;1.47;;;;;;;;;;5031327;28;20574;-73
2022/09/12 04:41:26;;;;;;;1.83;1.73;;;;;;;;;;5011332;28;20961;-73
2022/09/12 04:43:52;;;;;;;1.70;1.70;;;;;;;;;;5001268;28;20230;-73
2022/09/12 04:46:19;;;;;;;1.40;1.40;;;;;;;;;;5017341;28;20239;-72
2022/09/12 04:48:45;;;;;;;1.30;1.30;;;;;;;;;;4996118;28;20602;-72
2022/09/12 04:51:32;;;;;;;1.50;1.50;;;;;;;;;;5027534;28;20203;-71
2022/09/12 04:53:59;;;;;;;1.50;1.50;;;;;;;;;;4999553;28;20224;-73
2022/09/12 04:56:25;;;;;;;1.40;1.40;;;;;;;;;;5009179;28;20226;-72
2022/09/12 04:58:51;;;;;;;1.50;1.50;;;;;;;;;;5004851;28;20211;-72
2022/09/12 05:01:18;;;;;;;1.67;1.67;;;;;;;;;;5034792;28;20215;-76
2022/09/12 05:03:44;;;;;;;1.60;1.60;;;;;;;;;;5020490;28;20784;-73
2022/09/12 05:06:11;;;;;;;1.57;1.57;;;;;;;;;;5016602;28;20254;-71
2022/09/12 05:08:37;;;;;;;1.50;1.50;;;;;;;;;;5009463;28;20233;-72
2022/09/12 05:11:07;;;;;;;1.33;1.33;;;;;;;;;;4997440;28;20227;-72
2022/09/12 05:13:33;;;;;;;1.77;1.70;;;;;;;;;;4991662;28;20784;-72
2022/09/12 05:16:00;;;;;;;1.70;1.67;;;;;;;;;;5025108;28;20223;-71
2022/09/12 05:18:26;;;;;;;1.60;1.60;;;;;;;;;;5000268;28;20650;-71
2022/09/12 05:20:54;;;;;;;1.40;1.40;;;;;;;;;;5027372;28;20262;-72
2022/09/12 05:23:21;;;;;;;1.50;1.50;;;;;;;;;;5037909;28;20215;-74
2022/09/12 05:25:53;;;;;;;1.50;1.50;;;;;;;;;;5036200;28;20227;-73
2022/09/12 05:28:19;;;;;;;1.30;1.30;;;;;;;;;;5044742;28;20299;-73
2022/09/12 05:30:46;;;;;;;1.30;1.30;;;;;;;;;;5035867;28;20218;-73
2022/09/12 05:33:12;;;;;;;1.43;1.43;;;;;;;;;;5023416;28;20306;-72
2022/09/12 05:35:39;;;;;;;1.50;1.50;;;;;;;;;;5032933;28;20220;-74
2022/09/12 05:38:05;;;;;;;1.30;1.30;;;;;;;;;;5042230;28;20295;-73
2022/09/12 05:40:31;;;;;;;1.53;1.53;;;;;;;;;;5032845;28;20223;-74
2022/09/12 05:42:57;;;;;;;1.20;1.20;;;;;;;;;;5045739;28;20321;-72
2022/09/12 05:45:23;;;;;;;1.50;1.50;;;;;;;;;;5030855;28;20229;-73
2022/09/12 05:47:48;;;;;;;1.40;1.40;;;;;;;;;;5027406;28;20212;-73
2022/09/12 05:50:14;;;;;;;1.50;1.50;;;;;;;;;;5031227;28;20228;-73
2022/09/12 05:52:40;;;;;;;1.50;1.50;;;;;;;;;;5033538;28;20207;-72
2022/09/12 05:55:07;;;;;;;1.50;1.50;;;;;;;;;;5037474;28;20672;-73
2022/09/12 05:57:32;;;;;;;1.30;1.30;;;;;;;;;;5013607;28;20277;-73
2022/09/12 05:59:58;;;;;;;1.40;1.40;;;;;;;;;;5022911;28;20221;-71
2022/09/12 06:02:25;;;;;;;1.20;1.20;;;;;;;;;;5044644;28;20242;-72
2022/09/12 06:04:51;;;;;;;1.30;1.30;;;;;;;;;;5045466;28;20680;-73
2022/09/12 06:07:17;;;;;;;1.50;1.50;;;;;;;;;;5024823;28;20220;-73
2022/09/12 06:09:43;;;;;;;1.40;1.40;;;;;;;;;;5002449;28;20235;-72
2022/09/12 06:12:09;;;;;;;1.50;1.50;;;;;;;;;;5044258;28;20623;-73
2022/09/12 06:14:35;;;;;;;1.60;1.60;;;;;;;;;;5039471;28;20310;-73
2022/09/12 06:17:01;;;;;;;1.40;1.40;;;;;;;;;;5025102;28;20241;-74
2022/09/12 06:19:27;;;;;;;1.33;1.33;;;;;;;;;;5036863;28;20211;-73
2022/09/12 06:21:53;;;;;;;1.40;1.40;;;;;;;;;;5042176;28;20708;-72
2022/09/12 06:24:19;;;;;;;1.20;1.20;;;;;;;;;;5030678;28;20247;-73
2022/09/12 06:26:46;;;;;;;1.60;1.60;;;;;;;;;;5020806;28;20220;-73
2022/09/12 06:29:12;;;;;;;1.10;1.10;;;;;;;;;;5042513;28;20315;-72
2022/09/12 06:31:39;;;;;;;1.20;1.20;;;;;;;;;;5025700;28;20741;-72
2022/09/12 06:34:06;;;;;;;1.20;1.20;;;;;;;;;;5031544;28;20220;-72
2022/09/12 06:36:32;;;;;;;1.00;1.00;;;;;;;;;;5023467;28;21112;-72
2022/09/12 06:38:59;;;;;;;1.47;1.47;;;;;;;;;;5033810;28;20343;-74
2022/09/12 06:41:25;;;;;;;1.30;1.30;;;;;;;;;;5042646;28;20208;-74
2022/09/12 06:43:51;;;;;;;1.20;1.20;;;;;;;;;;5026528;28;20338;-72
2022/09/12 06:46:17;;;;;;;1.10;1.10;;;;;;;;;;5044149;28;20303;-72
2022/09/12 06:48:43;;;;;;;1.47;1.47;;;;;;;;;;5044243;28;20216;-72
2022/09/12 06:51:10;;;;;;;1.40;1.40;;;;;;;;;;5024648;28;20220;-73
2022/09/12 06:53:36;;;;;;;1.40;1.40;;;;;;;;;;5013319;28;20285;-72
2022/09/12 06:56:03;;;;;;;1.30;1.30;;;;;;;;;;5026318;28;20223;-74
2022/09/12 06:58:29;;;;;;;1.20;1.20;;;;;;;;;;5032846;28;20229;-72
2022/09/12 07:01:11;;;;;;;1.20;1.20;;;;;;;;;;5042093;28;20700;-74
2022/09/12 07:03:37;;;;;;;1.30;1.30;;;;;;;;;;5018493;28;20407;-72
2022/09/12 07:06:04;;;;;;;1.10;1.10;;;;;;;;;;5039848;28;20281;-73
2022/09/12 07:08:30;;;;;;;1.10;1.10;;;;;;;;;;5043889;28;20721;-73
2022/09/12 07:10:57;;;;;;;1.30;1.30;;;;;;;;;;5047012;28;20692;-73
2022/09/12 07:13:23;;;;;;;1.10;1.10;;;;;;;;;;5009730;28;20211;-72
2022/09/12 07:15:50;;;;;;;1.20;1.20;;;;;;;;;;5035553;28;20293;-73
2022/09/12 07:18:16;;;;;;;1.10;1.10;;;;;;;;;;5045130;28;20226;-73
2022/09/12 07:20:42;;;;;;;1.10;1.10;;;;;;;;;;5044165;28;20217;-73
2022/09/12 07:23:08;;;;;;;1.10;1.10;;;;;;;;;;5041212;28;20242;-72
2022/09/12 07:25:34;;;;;;;1.20;1.20;;;;;;;;;;5036088;28;20223;-72
2022/09/12 07:28:00;;;;;;;1.30;1.30;;;;;;;;;;5037929;28;20201;-73
2022/09/12 07:30:26;;;;;;;1.30;1.30;;;;;;;;;;5026925;28;21001;-74
2022/09/12 07:32:55;;;;;;;1.40;1.40;;;;;;;;;;5043664;28;20320;-73
2022/09/12 07:35:21;;;;;;;1.30;1.30;;;;;;;;;;5041770;28;20254;-72
2022/09/12 07:37:47;;;;;;;1.30;1.30;;;;;;;;;;5025124;28;20580;-73
2022/09/12 07:40:13;;;;;;;1.30;1.30;;;;;;;;;;5035271;28;20276;-73
2022/09/12 07:42:39;;;;;;;1.30;1.30;;;;;;;;;;5024784;28;20234;-72
2022/09/12 07:45:05;;;;;;;1.47;1.47;;;;;;;;;;5024969;28;20601;-73
2022/09/12 07:47:31;;;;;;;1.30;1.30;;;;;;;;;;5043287;28;20427;-73
2022/09/12 07:49:57;;;;;;;1.37;1.37;;;;;;;;;;5038513;28;20589;-73
2022/09/12 07:52:23;;;;;;;1.50;1.50;;;;;;;;;;5037880;28;20229;-73
2022/09/12 07:54:49;;;;;;;1.30;1.30;;;;;;;;;;5042926;28;20232;-72
2022/09/12 07:57:15;;;;;;;1.20;1.20;;;;;;;;;;5043600;28;20219;-75
2022/09/12 07:59:41;;;;;;;1.43;1.43;;;;;;;;;;5016069;28;20231;-73
2022/09/12 08:02:13;;;;;;;1.30;1.30;;;;;;;;;;5023100;28;20224;-74
2022/09/12 08:04:41;;;;;;;1.20;1.20;;;;;;;;;;5030374;28;20243;-74
2022/09/12 08:07:07;;;;;;;1.50;1.50;;;;;;;;;;5040360;28;20231;-73
2022/09/12 08:09:33;;;;;;;1.40;1.40;;;;;;;;;;5031136;28;20761;-74
2022/09/12 08:11:59;;;;;;;1.50;1.50;;;;;;;;;;5040411;28;20635;-74
2022/09/12 08:14:26;;;;;;;1.50;1.50;;;;;;;;;;5036561;28;20633;-73
2022/09/12 08:16:52;;;;;;;1.60;1.60;;;;;;;;;;5042191;28;20227;-73
2022/09/12 08:19:18;;;;;;;1.60;1.60;;;;;;;;;;5043334;28;20215;-75
2022/09/12 08:21:44;;;;;;;1.40;1.40;;;;;;;;;;5039761;28;20341;-74
2022/09/12 08:24:10;;;;;;;1.70;1.70;;;;;;;;;;5014074;28;20219;-73
2022/09/12 08:26:36;;;;;;;1.40;1.40;;;;;;;;;;5029964;28;20215;-73
2022/09/12 08:29:03;;;;;;;1.53;1.53;;;;;;;;;;5028846;28;20215;-73
2022/09/12 08:31:30;;;;;;;1.30;1.30;;;;;;;;;;5043068;28;20339;-73
2022/09/12 08:33:56;;;;;;;1.40;1.40;;;;;;;;;;5038676;28;20632;-73
2022/09/12 08:36:23;;;;;;;1.60;1.60;;;;;;;;;;5029836;28;20311;-73
2022/09/12 08:38:50;;;;;;;1.40;1.40;;;;;;;;;;5030392;28;20224;-74
2022/09/12 08:41:22;;;;;;;1.73;1.70;;;;;;;;;;5027923;28;20293;-73
2022/09/12 08:44:08;;;;;;;1.50;1.50;;;;;;;;;;5043463;28;20256;-73
2022/09/12 08:46:34;;;;;;;1.30;1.30;;;;;;;;;;5042717;28;20265;-74
2022/09/12 08:49:00;;;;;;;1.60;1.60;;;;;;;;;;5039248;28;20216;-73
2022/09/12 08:51:26;;;;;;;1.90;1.80;;;;;;;;;;5017993;28;20420;-74
2022/09/12 08:53:53;;;;;;;1.88;1.77;;;;;;;;;;5031632;28;20309;-73
2022/09/12 08:56:19;;;;;;;1.90;1.80;;;;;;;;;;5037067;28;20234;-74
2022/09/12 08:58:45;;;;;;;1.90;1.80;;;;;;;;;;5041217;28;20696;-73
2022/09/12 09:01:28;;;;;;;1.83;1.73;;;;;;;;;;5023230;28;20235;-74
2022/09/12 09:03:55;;;;;;;1.83;1.73;;;;;;;;;;5034132;28;20246;-75
2022/09/12 09:06:40;;;;;;;1.40;1.40;;;;;;;;;;5024831;28;20706;-76
2022/09/12 09:09:15;;;;;;;1.50;1.50;;;;;;;;;;5038069;28;20212;-73
2022/09/12 09:12:00;;;;;;;1.30;1.30;;;;;;;;;;5030996;28;20776;-73
2022/09/12 09:14:47;;;;;;;1.50;1.50;;;;;;;;;;5029495;28;20326;-73
2022/09/12 09:17:34;;;;;;;1.40;1.40;;;;;;;;;;5034583;28;20208;-73
2022/09/12 09:20:06;;;;;;;1.33;1.33;;;;;;;;;;5015912;28;20219;-74
2022/09/12 09:22:52;;;;;;;1.20;1.20;;;;;;;;;;5035200;28;20725;-74
2022/09/12 09:25:22;;;;;;;1.05;1.05;;;;;;;;;;5022053;28;20305;-75
2022/09/12 09:27:58;;;;;;;0.95;0.95;;;;;;;;;;5025236;28;20205;-75
2022/09/12 09:30:24;;;;;;;1.35;1.35;;;;;;;;;;5030934;28;20223;-74
2022/09/12 09:32:51;;;;;;;1.20;1.20;;;;;;;;;;5042160;28;20234;-75
2022/09/12 09:35:18;;;;;;;1.30;1.30;;;;;;;;;;5030020;28;20690;-75
2022/09/12 09:37:51;;;;;;;1.20;1.20;;;;;;;;;;5024641;28;20238;-74
2022/09/12 09:40:21;;;;;;;1.30;1.30;;;;;;;;;;5029418;28;20230;-73
2022/09/12 09:42:56;;;;;;;1.08;1.08;;;;;;;;;;5042105;28;20604;-76
2022/09/12 09:45:23;;;;;;;1.10;1.10;;;;;;;;;;5008915;28;20605;-75
2022/09/12 09:47:55;;;;;;;0.82;0.82;;;;;;;;;;5035095;28;20228;-73
2022/09/12 09:50:21;;;;;;;0.77;0.77;;;;;;;;;;5038011;28;20346;-73
2022/09/12 09:52:47;;;;;;;1.20;1.20;;;;;;;;;;5031539;28;20220;-73
2022/09/12 09:55:15;;;;;;;1.20;1.20;;;;;;;;;;5024510;28;20220;-74
2022/09/12 09:57:42;;;;;;;1.20;1.20;;;;;;;;;;5033358;28;20254;-73
2022/09/12 10:00:26;;;;;;;1.20;1.20;;;;;;;;;;5021614;28;20227;-73
2022/09/12 10:03:13;;;;;;;1.25;1.25;;;;;;;;;;5039871;28;20232;-75
2022/09/12 10:05:49;;;;;;;1.20;1.20;;;;;;;;;;5025532;28;20694;-74
2022/09/12 10:08:22;;;;;;;1.30;1.30;;;;;;;;;;5023418;28;20234;-75
2022/09/12 10:10:54;;;;;;;1.20;1.20;;;;;;;;;;5028648;28;20244;-73
2022/09/12 10:13:33;;;;;;;0.70;0.70;;;;;;;;;;5041440;28;20224;-74
2022/09/12 10:16:00;;;;;;;1.08;1.08;;;;;;;;;;5029073;28;20224;-72
2022/09/12 10:18:56;;;;;;;1.00;1.00;;;;;;;;;;5023397;28;20219;-75
2022/09/12 10:21:34;;;;;;;1.10;1.10;;;;;;;;;;5022244;28;20276;-76
2022/09/12 10:24:03;;;;;;;1.08;1.08;;;;;;;;;;5039363;28;20232;-72
2022/09/12 10:26:33;;;;;;;1.02;1.02;;;;;;;;;;5031219;28;20295;-74
2022/09/12 10:29:00;;;;;;;1.10;1.10;;;;;;;;;;5023448;28;20212;-71
2022/09/12 10:31:29;;;;;;;1.08;1.08;;;;;;;;;;5042416;28;20227;-72
2022/09/12 10:33:58;;;;;;;1.17;1.17;;;;;;;;;;5029663;28;20319;-74
2022/09/12 10:36:25;;;;;;;0.88;0.88;;;;;;;;;;5031831;28;20311;-74
2022/09/12 10:38:52;;;;;;;1.00;1.00;;;;;;;;;;5020934;28;20228;-73
2022/09/12 10:41:18;;;;;;;1.13;1.13;;;;;;;;;;5039390;28;20251;-72
2022/09/12 10:43:44;;;;;;;1.08;1.08;;;;;;;;;;5014041;28;20263;-75
2022/09/12 10:46:19;;;;;;;0.98;0.98;;;;;;;;;;5044282;28;20712;-72
2022/09/12 10:48:45;;;;;;;1.00;1.00;;;;;;;;;;5038036;28;20226;-74
2022/09/12 10:51:24;;;;;;;1.00;1.00;;;;;;;;;;5029322;28;20205;-74
2022/09/12 10:53:50;;;;;;;0.90;0.90;;;;;;;;;;5037741;28;20220;-77
2022/09/12 10:56:17;;;;;;;1.10;1.10;;;;;;;;;;5032651;28;20279;-74
2022/09/12 10:58:43;;;;;;;1.10;1.10;;;;;;;;;;5030424;28;20234;-73
2022/09/12 11:01:14;;;;;;;1.00;1.00;;;;;;;;;;5039597;28;20594;-74
2022/09/12 11:04:09;;;;;;;1.00;1.00;;;;;;;;;;5027421;28;21430;-74
2022/09/12 11:06:54;;;;;;;1.00;1.00;;;;;;;;;;5028066;28;20274;-75
2022/09/12 11:09:23;;;;;;;1.00;1.00;;;;;;;;;;5028961;28;20260;-73
2022/09/12 11:12:01;;;;;;;0.90;0.90;;;;;;;;;;5025459;28;20222;-74
2022/09/12 11:14:37;;;;;;;0.90;0.90;;;;;;;;;;5031289;28;20211;-75
2022/09/12 11:17:03;;;;;;;0.90;0.90;;;;;;;;;;5029326;28;20228;-75
2022/09/12 11:19:28;;;;;;;0.90;0.90;;;;;;;;;;5044805;28;20223;-73
2022/09/12 11:21:54;;;;;;;1.10;1.10;;;;;;;;;;5038440;28;20215;-76
2022/09/12 11:24:32;;;;;;;1.10;1.10;;;;;;;;;;5044914;28;20585;-73
2022/09/12 11:27:05;;;;;;;1.00;1.00;;;;;;;;;;5033983;28;20248;-73
2022/09/12 11:29:32;;;;;;;1.10;1.10;;;;;;;;;;5023248;28;20216;-74
2022/09/12 11:32:10;;;;;;;1.30;1.30;;;;;;;;;;5030736;28;20269;-73
2022/09/12 11:34:39;;;;;;;1.10;1.10;;;;;;;;;;5026816;28;20286;-73
2022/09/12 11:37:11;;;;;;;1.10;1.10;;;;;;;;;;5039500;28;20226;-73
2022/09/12 11:39:38;;;;;;;1.00;1.00;;;;;;;;;;5036550;28;20277;-74
2022/09/12 11:42:04;;;;;;;1.00;1.00;;;;;;;;;;5025457;28;20314;-74
2022/09/12 11:44:41;;;;;;;0.90;0.90;;;;;;;;;;5043733;28;20224;-75
2022/09/12 11:47:07;;;;;;;0.90;0.90;;;;;;;;;;5041445;28;20302;-74
2022/09/12 11:49:35;;;;;;;1.00;1.00;;;;;;;;;;5029456;28;20273;-73
2022/09/12 11:52:22;;;;;;;0.95;0.95;;;;;;;;;;5031286;28;20247;-75
2022/09/12 11:54:50;;;;;;;1.00;1.00;;;;;;;;;;5038367;28;20219;-75
2022/09/12 11:57:17;;;;;;;1.10;1.10;;;;;;;;;;5034836;28;20224;-72
2022/09/12 11:59:44;;;;;;;1.00;1.00;;;;;;;;;;5036569;28;20228;-76
2022/09/12 12:02:11;;;;;;;1.13;1.13;;;;;;;;;;5021139;28;20227;-74
2022/09/12 12:04:39;;;;;;;1.10;1.10;;;;;;;;;;5040858;28;20262;-72
2022/09/12 12:07:09;;;;;;;1.00;1.00;;;;;;;;;;5027410;28;20221;-75
2022/09/12 12:09:46;;;;;;;1.00;1.00;;;;;;;;;;5041008;28;20735;-73
2022/09/12 12:12:13;;;;;;;1.10;1.10;;;;;;;;;;5041453;28;20880;-73
2022/09/12 12:14:43;;;;;;;1.10;1.10;;;;;;;;;;5038697;28;20569;-73
2022/09/12 12:17:16;;;;;;;1.00;1.00;;;;;;;;;;5018703;28;20784;-74
2022/09/12 12:19:42;;;;;;;1.00;1.00;;;;;;;;;;5021545;28;20232;-79
2022/09/12 12:22:18;;;;;;;1.00;1.00;;;;;;;;;;5020720;28;20313;-77
2022/09/12 12:25:13;;;;;;;1.10;1.10;;;;;;;;;;5024483;28;20266;-76
2022/09/12 12:27:47;;;;;;;1.10;1.10;;;;;;;;;;5032033;28;20236;-77
2022/09/12 12:30:28;;;;;;;1.25;1.25;;;;;;;;;;5023673;28;20300;-74
2022/09/12 12:33:14;;;;;;;2.15;2.05;;;;;;;;;;5033869;28;20248;-74
2022/09/12 12:35:59;;;;;;;1.50;1.50;;;;;;;;;;5005119;28;20231;-76
2022/09/12 12:38:29;;;;;;;0.80;0.80;;;;;;;;;;5034371;28;20228;-73
2022/09/12 12:41:14;;;;;;;1.50;1.50;;;;;;;;;;5022264;28;20254;-75
2022/09/12 12:43:40;;;;;;;1.50;1.50;;;;;;;;;;5040791;28;20227;-74
2022/09/12 12:46:07;;;;;;;1.50;1.50;;;;;;;;;;5022990;28;20215;-74
2022/09/12 12:48:34;;;;;;;1.30;1.30;;;;;;;;;;5038411;28;20259;-76
2022/09/12 12:51:17;;;;;;;1.60;1.60;;;;;;;;;;5018890;28;20235;-74
2022/09/12 12:53:43;;;;;;;1.90;1.80;;;;;;;;;;5035716;28;20223;-73
2022/09/12 12:56:24;;;;;;;1.63;1.60;;;;;;;;;;5025037;28;20311;-76
2022/09/12 12:58:50;;;;;;;1.90;1.80;;;;;;;;;;5029422;28;20308;-75
2022/09/12 13:01:17;;;;;;;1.70;1.70;;;;;;;;;;5002174;28;20225;-76
2022/09/12 13:03:44;;;;;;;1.60;1.60;;;;;;;;;;5020511;28;20240;-76
2022/09/12 13:06:20;;;;;;;1.50;1.50;;;;;;;;;;4998634;28;20226;-72
2022/09/12 13:08:53;;;;;;;1.50;1.50;;;;;;;;;;5029533;28;20211;-74
2022/09/12 13:11:27;;;;;;;1.63;1.63;;;;;;;;;;5017542;28;20219;-74
2022/09/12 13:13:57;;;;;;;1.60;1.60;;;;;;;;;;5026660;28;20220;-73
2022/09/12 13:16:36;;;;;;;1.55;1.55;;;;;;;;;;5042119;28;20223;-75
2022/09/12 13:19:12;;;;;;;1.50;1.50;;;;;;;;;;5023210;28;20315;-73
2022/09/12 13:21:38;;;;;;;1.48;1.48;;;;;;;;;;5026081;28;20220;-74
2022/09/12 13:24:05;;;;;;;1.30;1.30;;;;;;;;;;5033386;28;20228;-75
2022/09/12 13:26:35;;;;;;;1.40;1.40;;;;;;;;;;5024873;28;20254;-74
2022/09/12 13:29:20;;;;;;;1.30;1.30;;;;;;;;;;5021701;28;20221;-76
2022/09/12 13:31:46;;;;;;;1.20;1.20;;;;;;;;;;5042111;28;20239;-74
2022/09/12 13:34:15;;;;;;;1.20;1.20;;;;;;;;;;5036233;28;20644;-74
2022/09/12 13:36:41;;;;;;;1.30;1.30;;;;;;;;;;5037523;28;20273;-73
2022/09/12 13:39:23;;;;;;;1.30;1.30;;;;;;;;;;5042095;28;20229;-75
2022/09/12 13:41:55;;;;;;;1.20;1.20;;;;;;;;;;5043108;28;20222;-75
2022/09/12 13:44:21;;;;;;;1.30;1.30;;;;;;;;;;5038410;28;20635;-74
2022/09/12 13:46:47;;;;;;;1.30;1.30;;;;;;;;;;5020823;28;20216;-73
2022/09/12 13:49:27;;;;;;;1.30;1.30;;;;;;;;;;5031226;28;20227;-73
2022/09/12 13:51:56;;;;;;;1.30;1.30;;;;;;;;;;5038131;28;20338;-74
2022/09/12 13:54:21;;;;;;;1.10;1.10;;;;;;;;;;5039711;28;21508;-75
2022/09/12 13:56:48;;;;;;;1.27;1.27;;;;;;;;;;5036374;28;20259;-73
2022/09/12 13:59:14;;;;;;;1.33;1.33;;;;;;;;;;5016605;28;20290;-75
2022/09/12 14:01:40;;;;;;;1.30;1.30;;;;;;;;;;5034937;28;20693;-74
2022/09/12 14:07:22;;;;;;;1.30;1.30;;;;;;;;;;5034947;28;20678;-74
2022/09/12 14:09:55;;;;;;;1.20;1.20;;;;;;;;;;5032463;28;20328;-74
2022/09/12 14:12:39;;;;;;;1.30;1.30;;;;;;;;;;5038718;28;20235;-76
2022/09/12 14:15:08;;;;;;;1.50;1.50;;;;;;;;;;5032763;28;20271;-74
2022/09/12 14:17:35;;;;;;;1.30;1.30;;;;;;;;;;5047279;28;25907;-74
2022/09/12 14:20:14;;;;;;;1.20;1.20;;;;;;;;;;5035842;28;20687;-75
2022/09/12 14:22:40;;;;;;;1.20;1.20;;;;;;;;;;5020351;28;20595;-76
2022/09/12 14:25:09;;;;;;;1.40;1.40;;;;;;;;;;5028820;28;20231;-74
2022/09/12 14:27:44;;;;;;;1.30;1.30;;;;;;;;;;5011360;28;20593;-74
2022/09/12 14:30:26;;;;;;;1.25;1.25;;;;;;;;;;5041712;28;20231;-74
2022/09/12 14:33:06;;;;;;;1.30;1.30;;;;;;;;;;5049866;28;20208;-75
2022/09/12 14:35:32;;;;;;;1.30;1.30;;;;;;;;;;5023161;28;20223;-74
2022/09/12 14:38:04;;;;;;;1.30;1.30;;;;;;;;;;5037113;28;20382;-74
2022/09/12 14:40:30;;;;;;;1.30;1.30;;;;;;;;;;5022403;28;20220;-77
2022/09/12 14:42:56;;;;;;;1.52;1.52;;;;;;;;;;5003770;28;20732;-74
2022/09/12 14:45:29;;;;;;;1.30;1.30;;;;;;;;;;5036245;28;20269;-76
2022/09/12 14:47:55;;;;;;;1.50;1.50;;;;;;;;;;5016295;28;20227;-75
2022/09/12 14:50:28;;;;;;;1.52;1.52;;;;;;;;;;5028730;28;20599;-77
2022/09/12 14:53:05;;;;;;;1.50;1.50;;;;;;;;;;5037189;28;20828;-75
2022/09/12 14:55:31;;;;;;;1.40;1.40;;;;;;;;;;5039245;28;21780;-76
2022/09/12 14:58:08;;;;;;;1.50;1.50;;;;;;;;;;5019043;28;20230;-76
2022/09/12 15:00:34;;;;;;;1.50;1.50;;;;;;;;;;5024956;28;20375;-77